createdAt,value
2018-08-31T00:00:33.601Z,78.54
2018-08-31T00:03:02.417Z,78.11
2018-08-31T00:05:46.967Z,78.55
2018-08-31T00:10:37.570Z,78.06
2018-08-31T00:13:06.473Z,77.57
2018-08-31T00:15:34.969Z,77.85
2018-08-31T00:18:03.404Z,78.25
2018-08-31T00:20:32.134Z,78.19
2018-08-31T00:23:01.005Z,78.90
2018-08-31T00:26:06.913Z,78.59
2018-08-31T00:28:47.431Z,78.62
2018-08-31T00:31:37.698Z,78.18
2018-08-31T00:36:27.651Z,78.20
2018-08-31T00:41:25.498Z,77.77
2018-08-31T00:44:05.757Z,77.51
2018-08-31T00:46:34.453Z,78.30
2018-08-31T00:49:02.901Z,78.66
2018-08-31T00:51:31.613Z,78.65
2018-08-31T00:54:00.132Z,78.81
2018-08-31T00:56:28.557Z,78.44
2018-08-31T00:58:57.073Z,78.94
2018-08-31T01:01:25.603Z,79.24
2018-08-31T01:03:54.028Z,79.24
2018-08-31T01:06:22.797Z,79.21
2018-08-31T01:08:51.402Z,78.73
2018-08-31T01:11:19.969Z,78.93
2018-08-31T01:13:48.523Z,78.87
2018-08-31T01:16:17.396Z,78.77
2018-08-31T01:18:45.865Z,78.79
2018-08-31T01:21:14.512Z,78.16
2018-08-31T01:23:43.027Z,78.23
2018-08-31T01:26:11.800Z,78.52
2018-08-31T01:28:40.453Z,78.43
2018-08-31T01:31:08.936Z,78.24
2018-08-31T01:33:38.026Z,78.23
2018-08-31T01:36:06.690Z,78.19
2018-08-31T01:38:35.575Z,78.44
2018-08-31T01:41:04.053Z,78.59
2018-08-31T01:43:32.596Z,78.32
2018-08-31T01:46:01.113Z,78.14
2018-08-31T01:48:29.577Z,78.30
2018-08-31T01:51:03.313Z,78.87
2018-08-31T01:53:32.033Z,78.79
2018-08-31T01:56:00.552Z,78.71
2018-08-31T01:58:29.006Z,79.03
2018-08-31T02:00:57.597Z,78.96
2018-08-31T02:03:26.020Z,79.34
2018-08-31T02:05:54.494Z,79.34
2018-08-31T02:08:23.812Z,79.38
2018-08-31T02:10:52.243Z,79.12
2018-08-31T02:13:20.762Z,79.38
2018-08-31T02:15:49.284Z,79.64
2018-08-31T02:18:17.932Z,79.54
2018-08-31T02:20:46.360Z,79.88
2018-08-31T02:23:15.021Z,79.52
2018-08-31T02:25:43.824Z,79.66
2018-08-31T02:28:12.293Z,79.88
2018-08-31T02:30:41.008Z,80.10
2018-08-31T02:33:09.577Z,80.15
2018-08-31T02:35:38.049Z,80.76
2018-08-31T02:38:07.237Z,80.56
2018-08-31T02:40:36.394Z,80.41
2018-08-31T02:43:04.990Z,80.82
2018-08-31T02:45:34.210Z,81.12
2018-08-31T02:48:02.641Z,80.71
2018-08-31T02:50:31.098Z,81.01
2018-08-31T02:52:59.647Z,80.98
2018-08-31T02:55:28.085Z,81.74
2018-08-31T02:57:56.560Z,81.84
2018-08-31T03:00:25.404Z,81.53
2018-08-31T03:02:53.850Z,81.54
2018-08-31T03:05:22.495Z,81.63
2018-08-31T03:07:51.031Z,81.99
2018-08-31T03:10:20.005Z,81.68
2018-08-31T03:12:48.533Z,81.68
2018-08-31T03:15:17.425Z,81.64
2018-08-31T03:17:46.838Z,81.60
2018-08-31T03:20:15.410Z,81.81
2018-08-31T03:22:43.916Z,82.21
2018-08-31T03:25:12.352Z,82.15
2018-08-31T03:27:40.822Z,81.94
2018-08-31T03:30:09.841Z,81.93
2018-08-31T03:32:38.413Z,81.92
2018-08-31T03:35:07.095Z,82.00
2018-08-31T03:37:35.901Z,82.06
2018-08-31T03:40:04.425Z,81.55
2018-08-31T03:42:33.288Z,82.09
2018-08-31T03:45:01.950Z,81.69
2018-08-31T03:47:30.470Z,81.73
2018-08-31T03:49:58.961Z,81.77
2018-08-31T03:52:27.797Z,81.56
2018-08-31T03:54:56.281Z,82.21
2018-08-31T03:57:24.859Z,81.89
2018-08-31T03:59:53.764Z,81.80
2018-08-31T04:02:22.195Z,81.99
2018-08-31T04:04:50.797Z,82.08
2018-08-31T04:07:19.510Z,82.35
2018-08-31T04:09:48.033Z,81.87
2018-08-31T04:12:16.630Z,82.41
2018-08-31T04:14:45.581Z,82.39
2018-08-31T04:17:14.021Z,81.93
2018-08-31T04:19:42.946Z,81.94
2018-08-31T04:22:11.561Z,82.11
2018-08-31T04:24:39.985Z,82.46
2018-08-31T04:27:08.465Z,82.21
2018-08-31T04:29:36.970Z,82.16
2018-08-31T04:32:05.864Z,82.24
2018-08-31T04:34:34.537Z,82.28
2018-08-31T04:37:03.474Z,81.97
2018-08-31T04:39:31.929Z,81.79
2018-08-31T04:42:00.509Z,82.06
2018-08-31T04:44:29.497Z,81.89
2018-08-31T04:46:58.005Z,82.21
2018-08-31T04:49:26.474Z,82.07
2018-08-31T04:51:54.999Z,82.33
2018-08-31T04:54:23.439Z,82.25
2018-08-31T04:56:51.953Z,82.28
2018-08-31T04:59:20.680Z,82.40
2018-08-31T05:01:49.129Z,81.84
2018-08-31T05:04:17.789Z,82.01
2018-08-31T05:06:46.324Z,82.17
2018-08-31T05:09:14.755Z,81.91
2018-08-31T05:11:43.277Z,82.25
2018-08-31T05:14:12.197Z,81.86
2018-08-31T05:16:40.640Z,82.07
2018-08-31T05:19:09.152Z,81.96
2018-08-31T05:21:38.530Z,82.03
2018-08-31T05:24:07.120Z,82.00
2018-08-31T05:26:35.572Z,82.31
2018-08-31T05:29:04.150Z,82.35
2018-08-31T05:31:32.667Z,82.22
2018-08-31T05:34:01.366Z,82.33
2018-08-31T05:36:30.009Z,82.18
2018-08-31T05:38:58.497Z,81.89
2018-08-31T05:41:27.107Z,82.29
2018-08-31T05:43:55.781Z,81.79
2018-08-31T05:46:24.546Z,81.74
2018-08-31T05:48:53.010Z,81.38
2018-08-31T05:51:21.646Z,81.97
2018-08-31T05:53:50.240Z,81.88
2018-08-31T05:56:18.873Z,81.56
2018-08-31T05:58:47.589Z,81.75
2018-08-31T06:01:16.033Z,81.52
2018-08-31T06:03:44.533Z,81.50
2018-08-31T06:06:13.371Z,81.38
2018-08-31T06:08:42.035Z,80.78
2018-08-31T06:11:10.546Z,81.13
2018-08-31T06:13:39.393Z,81.01
2018-08-31T06:16:08.151Z,81.04
2018-08-31T06:18:37.107Z,80.97
2018-08-31T06:21:05.744Z,80.85
2018-08-31T06:23:34.189Z,80.47
2018-08-31T06:26:02.701Z,80.21
2018-08-31T06:28:31.248Z,80.81
2018-08-31T06:30:59.729Z,80.67
2018-08-31T06:33:28.192Z,81.02
2018-08-31T06:35:56.797Z,80.72
2018-08-31T06:38:25.485Z,81.11
2018-08-31T06:40:54.366Z,80.68
2018-08-31T06:43:22.773Z,81.32
2018-08-31T06:45:51.560Z,81.11
2018-08-31T06:48:20.326Z,81.74
2018-08-31T06:50:50.214Z,81.56
2018-08-31T06:53:19.126Z,81.18
2018-08-31T06:55:47.583Z,81.31
2018-08-31T06:58:16.193Z,81.52
2018-08-31T07:00:44.647Z,81.33
2018-08-31T07:03:13.201Z,81.08
2018-08-31T07:05:42.095Z,81.57
2018-08-31T07:08:10.522Z,81.50
2018-08-31T07:10:39.111Z,81.48
2018-08-31T07:13:07.846Z,81.26
2018-08-31T07:15:36.331Z,81.21
2018-08-31T07:18:04.868Z,80.95
2018-08-31T07:20:33.587Z,81.23
2018-08-31T07:23:02.402Z,81.32
2018-08-31T07:25:31.278Z,81.55
2018-08-31T07:28:00.288Z,81.21
2018-08-31T07:30:28.742Z,81.56
2018-08-31T07:32:57.193Z,81.63
2018-08-31T07:35:32.120Z,81.74
2018-08-31T07:38:00.700Z,81.86
2018-08-31T07:40:29.312Z,82.03
2018-08-31T07:42:57.908Z,81.63
2018-08-31T07:45:26.358Z,81.35
2018-08-31T07:47:54.865Z,81.75
2018-08-31T07:50:23.602Z,81.09
2018-08-31T07:52:52.061Z,80.80
2018-08-31T07:55:20.486Z,80.65
2018-08-31T07:57:49.090Z,80.90
2018-08-31T08:00:17.604Z,81.13
2018-08-31T08:02:46.051Z,81.27
2018-08-31T08:05:14.569Z,81.14
2018-08-31T08:07:43.023Z,81.55
2018-08-31T08:10:12.049Z,81.60
2018-08-31T08:12:40.547Z,81.29
2018-08-31T08:15:09.034Z,81.14
2018-08-31T08:17:37.485Z,80.60
2018-08-31T08:20:07.050Z,80.51
2018-08-31T08:22:35.994Z,80.25
2018-08-31T08:25:04.568Z,80.30
2018-08-31T08:27:33.320Z,80.35
2018-08-31T08:30:01.799Z,79.96
2018-08-31T08:32:30.257Z,79.60
2018-08-31T08:34:59.369Z,79.42
2018-08-31T08:37:28.038Z,79.37
2018-08-31T08:39:56.525Z,79.07
2018-08-31T08:42:25.749Z,78.74
2018-08-31T08:44:54.438Z,78.28
2018-08-31T08:47:22.941Z,78.05
2018-08-31T08:49:51.802Z,77.83
2018-08-31T08:52:21.217Z,77.80
2018-08-31T08:54:50.279Z,77.64
2018-08-31T08:57:19.439Z,77.09
2018-08-31T08:59:49.626Z,77.25
2018-08-31T09:02:18.090Z,77.42
2018-08-31T09:04:46.686Z,77.32
2018-08-31T09:07:17.073Z,77.37
2018-08-31T09:09:46.369Z,76.93
2018-08-31T09:12:15.245Z,77.07
2018-08-31T09:14:43.698Z,77.06
2018-08-31T09:17:12.132Z,76.53
2018-08-31T09:19:40.926Z,76.85
2018-08-31T09:22:09.389Z,76.72
2018-08-31T09:24:37.991Z,76.53
2018-08-31T09:27:07.104Z,76.36
2018-08-31T09:29:35.693Z,76.09
2018-08-31T09:32:09.544Z,76.04
2018-08-31T09:34:42.442Z,76.07
2018-08-31T09:37:10.952Z,76.16
2018-08-31T09:39:39.481Z,76.27
2018-08-31T09:42:08.642Z,75.95
2018-08-31T09:44:37.408Z,75.71
2018-08-31T09:47:06.704Z,75.56
2018-08-31T09:49:35.333Z,75.91
2018-08-31T09:52:03.807Z,75.30
2018-08-31T09:54:32.438Z,75.50
2018-08-31T09:57:00.961Z,75.44
2018-08-31T09:59:29.409Z,75.49
2018-08-31T10:02:04.169Z,75.36
2018-08-31T10:04:32.746Z,75.04
2018-08-31T10:07:01.216Z,74.84
2018-08-31T10:09:29.841Z,74.81
2018-08-31T10:11:58.269Z,75.08
2018-08-31T10:14:26.733Z,74.90
2018-08-31T10:16:55.489Z,74.91
2018-08-31T10:19:24.138Z,74.50
2018-08-31T10:21:52.582Z,74.65
2018-08-31T10:24:21.647Z,74.43
2018-08-31T10:26:50.358Z,74.16
2018-08-31T10:29:18.780Z,74.41
2018-08-31T10:31:47.587Z,74.50
2018-08-31T10:34:16.034Z,73.93
2018-08-31T10:36:44.493Z,74.32
2018-08-31T10:39:14.542Z,74.03
2018-08-31T10:41:43.026Z,73.67
2018-08-31T10:44:11.652Z,73.10
2018-08-31T10:46:40.751Z,72.96
2018-08-31T10:49:09.197Z,72.25
2018-08-31T10:51:38.025Z,72.42
2018-08-31T10:54:06.922Z,72.12
2018-08-31T10:56:35.700Z,71.85
2018-08-31T10:59:04.163Z,71.67
2018-08-31T11:01:32.721Z,71.34
2018-08-31T11:04:01.246Z,70.45
2018-08-31T11:06:29.694Z,70.33
2018-08-31T11:08:58.774Z,70.61
2018-08-31T11:11:27.239Z,70.19
2018-08-31T11:13:55.689Z,70.46
2018-08-31T11:16:24.231Z,69.98
2018-08-31T11:18:52.719Z,69.67
2018-08-31T11:21:21.165Z,69.30
2018-08-31T11:23:49.966Z,68.89
2018-08-31T11:26:19.457Z,68.87
2018-08-31T11:28:48.714Z,69.34
2018-08-31T11:31:17.237Z,69.51
2018-08-31T11:33:45.681Z,69.58
2018-08-31T11:36:14.110Z,69.46
2018-08-31T11:38:42.766Z,69.68
2018-08-31T11:41:11.201Z,70.15
2018-08-31T11:43:39.756Z,70.37
2018-08-31T11:46:09.458Z,70.23
2018-08-31T11:48:44.652Z,70.27
2018-08-31T11:51:13.590Z,71.07
2018-08-31T11:53:42.182Z,70.47
2018-08-31T11:56:10.729Z,70.74
2018-08-31T11:58:39.553Z,71.02
2018-08-31T12:01:08.205Z,70.96
2018-08-31T12:03:36.610Z,70.68
2018-08-31T12:06:05.254Z,70.60
2018-08-31T12:08:33.731Z,70.36
2018-08-31T12:11:02.219Z,70.71
2018-08-31T12:13:30.801Z,70.75
2018-08-31T12:15:59.264Z,70.72
2018-08-31T12:18:27.733Z,70.63
2018-08-31T12:20:56.844Z,71.10
2018-08-31T12:23:25.312Z,71.00
2018-08-31T12:25:53.804Z,70.91
2018-08-31T12:28:22.638Z,70.72
2018-08-31T12:30:51.201Z,70.84
2018-08-31T12:33:20.352Z,70.26
2018-08-31T12:35:49.236Z,70.65
2018-08-31T12:38:17.693Z,70.81
2018-08-31T12:40:46.377Z,70.77
2018-08-31T12:43:14.921Z,71.57
2018-08-31T12:45:43.411Z,71.62
2018-08-31T12:48:12.337Z,71.33
2018-08-31T12:50:41.640Z,71.56
2018-08-31T12:53:10.090Z,71.92
2018-08-31T12:55:38.519Z,71.93
2018-08-31T12:58:07.293Z,71.73
2018-08-31T13:00:35.719Z,71.57
2018-08-31T13:03:04.235Z,71.12
2018-08-31T13:05:33.061Z,70.79
2018-08-31T13:08:01.581Z,70.76
2018-08-31T13:10:30.078Z,70.79
2018-08-31T13:12:58.772Z,70.28
2018-08-31T13:15:27.210Z,70.37
2018-08-31T13:17:55.676Z,70.61
2018-08-31T13:20:24.478Z,70.43
2018-08-31T13:22:52.921Z,70.83
2018-08-31T13:25:21.418Z,70.83
2018-08-31T13:27:50.210Z,70.71
2018-08-31T13:30:18.690Z,70.20
2018-08-31T13:32:47.153Z,70.51
2018-08-31T13:35:16.446Z,69.68
2018-08-31T13:37:44.960Z,69.44
2018-08-31T13:40:13.434Z,68.77
2018-08-31T13:42:42.188Z,68.64
2018-08-31T13:45:10.709Z,68.42
2018-08-31T13:47:39.166Z,68.58
2018-08-31T13:50:07.910Z,67.96
2018-08-31T13:52:36.555Z,67.47
2018-08-31T13:55:05.074Z,67.48
2018-08-31T13:57:34.098Z,67.70
2018-08-31T14:00:02.537Z,67.25
2018-08-31T14:02:31.019Z,67.78
2018-08-31T14:04:59.745Z,68.35
2018-08-31T14:07:28.161Z,67.92
2018-08-31T14:09:57.107Z,67.90
2018-08-31T14:12:25.905Z,67.85
2018-08-31T14:14:54.337Z,67.93
2018-08-31T14:17:22.857Z,67.92
2018-08-31T14:19:51.430Z,68.37
2018-08-31T14:22:19.879Z,68.12
2018-08-31T14:24:48.673Z,68.02
2018-08-31T14:27:17.610Z,68.10
2018-08-31T14:29:46.166Z,68.48
2018-08-31T14:32:14.541Z,68.94
2018-08-31T14:34:43.353Z,68.63
2018-08-31T14:37:11.805Z,68.67
2018-08-31T14:39:40.264Z,68.90
2018-08-31T14:42:09.018Z,68.97
2018-08-31T14:44:37.457Z,69.17
2018-08-31T14:47:06.013Z,69.42
2018-08-31T14:49:35.730Z,69.51
2018-08-31T14:52:04.146Z,69.21
2018-08-31T14:54:32.760Z,69.60
2018-08-31T14:57:01.715Z,69.66
2018-08-31T14:59:30.208Z,69.61
2018-08-31T15:01:58.709Z,70.48
2018-08-31T15:04:28.013Z,69.88
2018-08-31T15:06:56.524Z,70.86
2018-08-31T15:09:25.029Z,70.36
2018-08-31T15:11:54.181Z,70.54
2018-08-31T15:14:22.605Z,70.71
2018-08-31T15:16:51.034Z,70.19
2018-08-31T15:19:20.326Z,70.24
2018-08-31T15:21:48.778Z,70.37
2018-08-31T15:24:17.210Z,70.66
2018-08-31T15:26:46.076Z,70.62
2018-08-31T15:29:14.504Z,70.89
2018-08-31T15:31:42.954Z,70.71
2018-08-31T15:34:11.915Z,71.15
2018-08-31T15:36:40.359Z,71.69
2018-08-31T15:39:09.783Z,72.06
2018-08-31T15:41:38.340Z,71.88
2018-08-31T15:44:06.877Z,72.32
2018-08-31T15:46:35.317Z,72.55
2018-08-31T15:49:03.868Z,72.96
2018-08-31T15:51:32.347Z,73.13
2018-08-31T15:54:00.779Z,72.97
2018-08-31T15:56:29.588Z,73.42
2018-08-31T15:58:58.035Z,73.88
2018-08-31T16:01:26.515Z,73.62
2018-08-31T16:03:55.612Z,74.46
2018-08-31T16:06:24.081Z,74.34
2018-08-31T16:08:52.545Z,75.21
2018-08-31T16:11:21.201Z,75.18
2018-08-31T16:13:49.878Z,75.54
2018-08-31T16:16:18.525Z,75.79
2018-08-31T16:18:47.217Z,76.32
2018-08-31T16:21:15.705Z,76.56
2018-08-31T16:23:44.153Z,76.48
2018-08-31T16:26:12.965Z,76.97
2018-08-31T16:28:41.419Z,77.35
2018-08-31T16:31:09.881Z,77.16
2018-08-31T16:33:38.398Z,76.75
2018-08-31T16:36:06.854Z,77.18
2018-08-31T16:38:35.285Z,77.03
2018-08-31T16:41:03.833Z,77.00
2018-08-31T16:43:32.283Z,77.48
2018-08-31T16:46:00.716Z,76.86
2018-08-31T16:48:29.269Z,76.86
2018-08-31T16:50:57.701Z,77.22
2018-08-31T16:53:26.131Z,76.98
2018-08-31T16:55:54.869Z,77.07
2018-08-31T16:58:23.630Z,76.63
2018-08-31T17:00:52.109Z,77.20
2018-08-31T17:03:20.671Z,77.16
2018-08-31T17:05:49.197Z,76.84
2018-08-31T17:08:17.630Z,77.34
2018-08-31T17:10:46.192Z,77.08
2018-08-31T17:13:14.630Z,77.89
2018-08-31T17:15:43.227Z,77.85
2018-08-31T17:18:12.053Z,77.68
2018-08-31T17:20:40.534Z,77.82
2018-08-31T17:23:09.038Z,77.99
2018-08-31T17:25:37.709Z,78.45
2018-08-31T17:28:11.376Z,78.54
2018-08-31T17:30:39.973Z,78.48
2018-08-31T17:33:13.681Z,79.10
2018-08-31T17:35:47.645Z,79.47
2018-08-31T17:38:16.221Z,79.54
2018-08-31T17:40:44.665Z,79.31
2018-08-31T17:43:13.160Z,80.26
2018-08-31T17:45:41.755Z,79.77
2018-08-31T17:48:10.269Z,80.24
2018-08-31T17:50:38.757Z,80.28
2018-08-31T17:53:07.797Z,80.95
2018-08-31T17:55:36.276Z,80.93
2018-08-31T17:58:04.917Z,80.94
2018-08-31T18:00:33.778Z,81.25
2018-08-31T18:03:02.232Z,81.31
2018-08-31T18:05:30.742Z,81.70
2018-08-31T18:07:59.289Z,81.67
2018-08-31T18:10:27.734Z,81.68
2018-08-31T18:12:56.214Z,82.14
2018-08-31T18:15:24.966Z,81.75
2018-08-31T18:17:53.473Z,81.78
2018-08-31T18:20:21.959Z,82.03
2018-08-31T18:22:51.601Z,82.49
2018-08-31T18:25:20.898Z,82.19
2018-08-31T18:27:49.509Z,82.35
2018-08-31T18:30:18.117Z,82.19
2018-08-31T18:32:46.598Z,82.27
2018-08-31T18:35:15.360Z,82.81
2018-08-31T18:37:43.893Z,82.55
2018-08-31T18:40:12.365Z,82.87
2018-08-31T18:42:40.845Z,82.96
2018-08-31T18:45:09.358Z,83.05
2018-08-31T18:47:37.826Z,82.69
2018-08-31T18:50:06.374Z,82.70
2018-08-31T18:52:35.098Z,82.80
2018-08-31T18:55:03.506Z,83.21
2018-08-31T18:57:32.157Z,83.09
2018-08-31T19:00:00.724Z,83.34
2018-08-31T19:02:29.337Z,83.56
2018-08-31T19:04:57.802Z,83.56
2018-08-31T19:07:26.726Z,83.11
2018-08-31T19:09:55.185Z,83.13
2018-08-31T19:12:23.688Z,83.21
2018-08-31T19:14:52.430Z,82.79
2018-08-31T19:17:20.944Z,82.84
2018-08-31T19:19:49.811Z,83.08
2018-08-31T19:22:18.905Z,82.77
2018-08-31T19:24:47.384Z,83.01
2018-08-31T19:27:16.645Z,82.75
2018-08-31T19:29:45.613Z,82.93
2018-08-31T19:32:14.067Z,83.06
2018-08-31T19:34:42.685Z,83.07
2018-08-31T19:37:11.402Z,82.92
2018-08-31T19:39:39.873Z,83.41
2018-08-31T19:42:08.523Z,83.64
2018-08-31T19:44:37.165Z,83.30
2018-08-31T19:47:05.663Z,83.44
2018-08-31T19:49:34.313Z,83.59
2018-08-31T19:52:09.599Z,83.73
2018-08-31T19:54:38.131Z,83.72
2018-08-31T19:57:06.684Z,83.65
2018-08-31T19:59:35.326Z,83.77
2018-08-31T20:02:03.829Z,83.57
2018-08-31T20:04:32.540Z,83.78
2018-08-31T20:07:01.582Z,83.63
2018-08-31T20:09:30.070Z,83.35
2018-08-31T20:11:58.509Z,83.32
2018-08-31T20:14:27.411Z,83.87
2018-08-31T20:16:56.054Z,83.19
2018-08-31T20:19:24.632Z,83.57
2018-08-31T20:21:53.202Z,83.49
2018-08-31T20:24:21.721Z,83.43
2018-08-31T20:26:50.237Z,83.41
2018-08-31T20:29:18.797Z,83.97
2018-08-31T20:31:47.362Z,83.99
2018-08-31T20:34:15.830Z,83.64
2018-08-31T20:36:44.437Z,83.67
2018-08-31T20:39:13.444Z,84.25
2018-08-31T20:41:42.177Z,84.13
2018-08-31T20:44:10.832Z,84.04
2018-08-31T20:46:39.368Z,83.83
2018-08-31T20:49:07.814Z,84.24
2018-08-31T20:51:37.090Z,84.43
2018-08-31T20:54:05.663Z,84.29
2018-08-31T20:56:34.120Z,84.47
2018-08-31T20:59:02.570Z,84.49
2018-08-31T21:01:31.039Z,84.15
2018-08-31T21:03:59.521Z,84.28
2018-08-31T21:06:28.446Z,84.35
2018-08-31T21:08:57.477Z,84.32
2018-08-31T21:11:25.957Z,84.43
2018-08-31T21:13:54.473Z,85.05
2018-08-31T21:16:22.921Z,85.27
2018-08-31T21:18:51.381Z,85.28
2018-08-31T21:21:19.930Z,85.11
2018-08-31T21:23:48.622Z,85.48
2018-08-31T21:26:17.088Z,85.43
2018-08-31T21:28:45.864Z,85.23
2018-08-31T21:31:14.436Z,85.38
2018-08-31T21:33:42.877Z,85.85
2018-08-31T21:36:11.417Z,85.15
2018-08-31T21:38:39.917Z,85.73
2018-08-31T21:41:08.381Z,85.28
2018-08-31T21:43:36.946Z,85.32
2018-08-31T21:46:05.627Z,85.76
2018-08-31T21:48:34.093Z,85.70
2018-08-31T21:51:02.713Z,85.77
2018-08-31T21:53:31.365Z,85.23
2018-08-31T21:55:59.851Z,85.28
2018-08-31T21:58:28.381Z,85.05
2018-08-31T22:01:02.347Z,85.39
2018-08-31T22:03:30.864Z,85.04
2018-08-31T22:05:59.321Z,85.52
2018-08-31T22:08:28.149Z,85.15
2018-08-31T22:10:57.069Z,85.08
2018-08-31T22:13:25.504Z,85.39
2018-08-31T22:15:53.962Z,85.25
2018-08-31T22:18:22.484Z,84.99
2018-08-31T22:20:50.921Z,85.16
2018-08-31T22:23:20.481Z,85.46
2018-08-31T22:25:49.699Z,85.27
2018-08-31T22:28:18.199Z,85.11
2018-08-31T22:30:46.703Z,84.87
2018-08-31T22:33:21.857Z,84.87
2018-08-31T22:35:50.408Z,85.36
2018-08-31T22:38:19.116Z,84.91
2018-08-31T22:40:47.607Z,84.77
2018-08-31T22:43:16.146Z,84.78
2018-08-31T22:45:44.579Z,84.88
2018-08-31T22:48:13.099Z,85.12
2018-08-31T22:50:41.719Z,85.16
2018-08-31T22:53:10.149Z,84.98
2018-08-31T22:55:38.697Z,85.41
2018-08-31T22:58:07.205Z,84.95
2018-08-31T23:00:35.701Z,85.10
2018-08-31T23:03:04.720Z,84.85
2018-08-31T23:05:33.279Z,85.18
2018-08-31T23:08:01.745Z,85.48
2018-08-31T23:10:30.629Z,85.08
2018-08-31T23:12:59.324Z,85.44
2018-08-31T23:15:27.809Z,85.19
2018-08-31T23:17:56.256Z,85.11
2018-08-31T23:20:24.746Z,84.99
2018-08-31T23:22:57.329Z,85.12
2018-08-31T23:25:31.407Z,85.44
2018-08-31T23:28:00.081Z,84.69
2018-08-31T23:30:28.515Z,84.92
2018-08-31T23:32:57.157Z,84.99
2018-08-31T23:35:32.386Z,85.03
2018-08-31T23:38:00.837Z,85.74
2018-08-31T23:40:30.018Z,85.12
2018-08-31T23:42:58.525Z,85.44
2018-08-31T23:45:27.153Z,85.36
2018-08-31T23:47:55.610Z,84.90
2018-08-31T23:50:24.490Z,85.10
2018-08-31T23:52:53.253Z,85.05
2018-08-31T23:55:21.720Z,85.37
2018-08-31T23:57:50.560Z,85.28
